sensor_id;sensor_type;location;lat;lon;timestamp;temperature;humidity
5118;DHT22;2578;51.622;7.046;2023-03-11T00:00:36;0.80;99.90
5118;DHT22;2578;51.622;7.046;2023-03-11T00:03:04;0.90;99.90
5118;DHT22;2578;51.622;7.046;2023-03-11T00:05:34;0.90;99.90
5118;DHT22;2578;51.622;7.046;2023-03-11T00:08:00;0.80;99.90
5118;DHT22;2578;51.622;7.046;2023-03-11T00:10:32;0.90;99.90
5118;DHT22;2578;51.622;7.046;2023-03-11T00:12:58;0.90;99.90
5118;DHT22;2578;51.622;7.046;2023-03-11T00:15:24;0.90;99.90
5118;DHT22;2578;51.622;7.046;2023-03-11T00:17:50;0.90;99.90
5118;DHT22;2578;51.622;7.046;2023-03-11T00:20:31;0.90;99.90
5118;DHT22;2578;51.622;7.046;2023-03-11T00:22:57;0.90;99.90
5118;DHT22;2578;51.622;7.046;2023-03-11T00:25:25;0.90;99.90
5118;DHT22;2578;51.622;7.046;2023-03-11T00:27:50;0.90;99.90
5118;DHT22;2578;51.622;7.046;2023-03-11T00:30:17;0.90;99.90
5118;DHT22;2578;51.622;7.046;2023-03-11T00:32:43;0.90;99.90
5118;DHT22;2578;51.622;7.046;2023-03-11T00:35:13;0.90;99.90
5118;DHT22;2578;51.622;7.046;2023-03-11T00:37:40;0.80;99.90
5118;DHT22;2578;51.622;7.046;2023-03-11T00:40:06;0.80;99.90
5118;DHT22;2578;51.622;7.046;2023-03-11T00:42:33;0.80;99.90
5118;DHT22;2578;51.622;7.046;2023-03-11T00:44:58;0.80;99.90
5118;DHT22;2578;51.622;7.046;2023-03-11T00:47:24;0.80;99.90
5118;DHT22;2578;51.622;7.046;2023-03-11T00:49:50;0.50;99.90
5118;DHT22;2578;51.622;7.046;2023-03-11T00:52:15;0.70;99.90
5118;DHT22;2578;51.622;7.046;2023-03-11T00:54:42;0.70;99.90
5118;DHT22;2578;51.622;7.046;2023-03-11T00:57:07;1.20;99.90
5118;DHT22;2578;51.622;7.046;2023-03-11T00:59:34;0.70;99.90
5118;DHT22;2578;51.622;7.046;2023-03-11T01:02:00;0.70;99.90
5118;DHT22;2578;51.622;7.046;2023-03-11T01:04:25;0.70;99.90
5118;DHT22;2578;51.622;7.046;2023-03-11T01:06:51;0.70;99.90
5118;DHT22;2578;51.622;7.046;2023-03-11T01:09:16;0.70;99.90
5118;DHT22;2578;51.622;7.046;2023-03-11T01:11:42;0.70;99.90
5118;DHT22;2578;51.622;7.046;2023-03-11T01:14:08;0.70;99.90
5118;DHT22;2578;51.622;7.046;2023-03-11T01:16:34;0.70;99.90
5118;DHT22;2578;51.622;7.046;2023-03-11T01:18:59;0.70;99.90
5118;DHT22;2578;51.622;7.046;2023-03-11T01:21:25;0.70;99.90
5118;DHT22;2578;51.622;7.046;2023-03-11T01:23:50;0.70;99.90
5118;DHT22;2578;51.622;7.046;2023-03-11T01:26:16;0.70;99.90
5118;DHT22;2578;51.622;7.046;2023-03-11T01:28:42;0.70;99.90
5118;DHT22;2578;51.622;7.046;2023-03-11T01:31:09;0.70;99.90
5118;DHT22;2578;51.622;7.046;2023-03-11T01:33:34;0.70;99.90
5118;DHT22;2578;51.622;7.046;2023-03-11T01:36:00;0.70;99.90
5118;DHT22;2578;51.622;7.046;2023-03-11T01:38:26;0.70;99.90
5118;DHT22;2578;51.622;7.046;2023-03-11T01:40:52;0.70;99.90
5118;DHT22;2578;51.622;7.046;2023-03-11T01:48:33;0.60;99.90
5118;DHT22;2578;51.622;7.046;2023-03-11T01:50:59;0.60;99.90
5118;DHT22;2578;51.622;7.046;2023-03-11T01:53:25;0.70;99.90
5118;DHT22;2578;51.622;7.046;2023-03-11T01:55:51;0.70;99.90
5118;DHT22;2578;51.622;7.046;2023-03-11T01:58:20;0.60;99.90
5118;DHT22;2578;51.622;7.046;2023-03-11T02:00:47;0.60;99.90
5118;DHT22;2578;51.622;7.046;2023-03-11T02:03:33;2.90;99.90
5118;DHT22;2578;51.622;7.046;2023-03-11T02:06:04;0.60;99.90
5118;DHT22;2578;51.622;7.046;2023-03-11T02:08:31;0.50;99.90
5118;DHT22;2578;51.622;7.046;2023-03-11T02:11:00;0.50;99.90
5118;DHT22;2578;51.622;7.046;2023-03-11T02:13:27;0.50;99.90
5118;DHT22;2578;51.622;7.046;2023-03-11T02:15:53;0.50;99.90
5118;DHT22;2578;51.622;7.046;2023-03-11T02:18:19;0.50;99.90
5118;DHT22;2578;51.622;7.046;2023-03-11T02:21:03;0.40;99.90
5118;DHT22;2578;51.622;7.046;2023-03-11T02:23:38;0.40;99.90
5118;DHT22;2578;51.622;7.046;2023-03-11T02:26:16;0.30;99.90
5118;DHT22;2578;51.622;7.046;2023-03-11T02:28:45;0.20;99.90
5118;DHT22;2578;51.622;7.046;2023-03-11T02:31:12;0.10;99.90
5118;DHT22;2578;51.622;7.046;2023-03-11T02:33:38;0.10;99.90
5118;DHT22;2578;51.622;7.046;2023-03-11T02:36:04;0.00;99.90
5118;DHT22;2578;51.622;7.046;2023-03-11T02:38:30;0.00;99.90
5118;DHT22;2578;51.622;7.046;2023-03-11T02:40:57;-0.10;99.90
5118;DHT22;2578;51.622;7.046;2023-03-11T02:43:44;-0.10;99.90
5118;DHT22;2578;51.622;7.046;2023-03-11T02:46:11;-0.20;99.90
5118;DHT22;2578;51.622;7.046;2023-03-11T02:48:38;-0.10;99.90
5118;DHT22;2578;51.622;7.046;2023-03-11T02:51:04;-0.10;99.90
5118;DHT22;2578;51.622;7.046;2023-03-11T02:53:35;-0.10;99.90
5118;DHT22;2578;51.622;7.046;2023-03-11T02:56:01;-0.10;99.90
5118;DHT22;2578;51.622;7.046;2023-03-11T02:58:27;0.00;99.90
5118;DHT22;2578;51.622;7.046;2023-03-11T03:00:52;-0.10;99.90
5118;DHT22;2578;51.622;7.046;2023-03-11T03:03:18;0.00;99.90
5118;DHT22;2578;51.622;7.046;2023-03-11T03:05:44;0.10;99.90
5118;DHT22;2578;51.622;7.046;2023-03-11T03:08:10;0.10;99.90
5118;DHT22;2578;51.622;7.046;2023-03-11T03:10:36;0.00;99.90
5118;DHT22;2578;51.622;7.046;2023-03-11T03:13:02;0.20;99.90
5118;DHT22;2578;51.622;7.046;2023-03-11T03:15:27;0.20;99.90
5118;DHT22;2578;51.622;7.046;2023-03-11T03:17:53;-1.10;99.90
5118;DHT22;2578;51.622;7.046;2023-03-11T03:20:18;0.20;99.90
5118;DHT22;2578;51.622;7.046;2023-03-11T03:22:47;0.20;99.90
5118;DHT22;2578;51.622;7.046;2023-03-11T03:25:12;0.20;99.90
5118;DHT22;2578;51.622;7.046;2023-03-11T03:27:38;0.20;99.90
5118;DHT22;2578;51.622;7.046;2023-03-11T03:30:05;0.20;99.90
5118;DHT22;2578;51.622;7.046;2023-03-11T03:32:30;0.20;99.90
5118;DHT22;2578;51.622;7.046;2023-03-11T03:34:56;0.20;99.90
5118;DHT22;2578;51.622;7.046;2023-03-11T03:37:27;0.20;99.90
5118;DHT22;2578;51.622;7.046;2023-03-11T03:39:53;0.20;99.90
5118;DHT22;2578;51.622;7.046;2023-03-11T03:42:20;0.20;99.90
5118;DHT22;2578;51.622;7.046;2023-03-11T03:44:45;0.20;99.90
5118;DHT22;2578;51.622;7.046;2023-03-11T03:47:11;0.20;99.90
5118;DHT22;2578;51.622;7.046;2023-03-11T03:49:37;0.10;99.90
5118;DHT22;2578;51.622;7.046;2023-03-11T03:52:05;0.10;99.90
5118;DHT22;2578;51.622;7.046;2023-03-11T03:54:31;0.10;99.90
5118;DHT22;2578;51.622;7.046;2023-03-11T03:56:57;0.10;99.90
5118;DHT22;2578;51.622;7.046;2023-03-11T03:59:23;1.60;99.90
5118;DHT22;2578;51.622;7.046;2023-03-11T04:01:48;0.10;99.90
5118;DHT22;2578;51.622;7.046;2023-03-11T04:04:14;0.10;99.90
5118;DHT22;2578;51.622;7.046;2023-03-11T04:06:41;0.10;99.90
5118;DHT22;2578;51.622;7.046;2023-03-11T04:09:07;0.10;99.90
5118;DHT22;2578;51.622;7.046;2023-03-11T04:11:33;0.10;99.90
5118;DHT22;2578;51.622;7.046;2023-03-11T04:13:59;0.10;99.90
5118;DHT22;2578;51.622;7.046;2023-03-11T04:16:26;0.10;99.90
5118;DHT22;2578;51.622;7.046;2023-03-11T04:18:52;0.10;99.90
5118;DHT22;2578;51.622;7.046;2023-03-11T04:21:18;0.10;99.90
5118;DHT22;2578;51.622;7.046;2023-03-11T04:23:43;0.10;99.90
5118;DHT22;2578;51.622;7.046;2023-03-11T04:26:09;0.10;99.90
5118;DHT22;2578;51.622;7.046;2023-03-11T04:28:34;0.10;99.90
5118;DHT22;2578;51.622;7.046;2023-03-11T04:31:00;0.10;99.90
5118;DHT22;2578;51.622;7.046;2023-03-11T04:33:26;0.10;99.90
5118;DHT22;2578;51.622;7.046;2023-03-11T04:35:51;0.10;99.90
5118;DHT22;2578;51.622;7.046;2023-03-11T04:38:17;0.10;99.90
5118;DHT22;2578;51.622;7.046;2023-03-11T04:40:42;0.10;99.90
5118;DHT22;2578;51.622;7.046;2023-03-11T04:43:08;0.10;99.90
5118;DHT22;2578;51.622;7.046;2023-03-11T04:45:33;0.10;99.90
5118;DHT22;2578;51.622;7.046;2023-03-11T04:48:02;0.10;99.90
5118;DHT22;2578;51.622;7.046;2023-03-11T04:50:27;0.00;99.90
5118;DHT22;2578;51.622;7.046;2023-03-11T04:52:53;0.00;99.90
5118;DHT22;2578;51.622;7.046;2023-03-11T04:55:18;0.00;99.90
5118;DHT22;2578;51.622;7.046;2023-03-11T04:57:44;-0.20;99.90
5118;DHT22;2578;51.622;7.046;2023-03-11T05:00:10;-0.10;99.90
5118;DHT22;2578;51.622;7.046;2023-03-11T05:02:37;-0.10;99.90
5118;DHT22;2578;51.622;7.046;2023-03-11T05:05:04;-0.10;99.90
5118;DHT22;2578;51.622;7.046;2023-03-11T05:07:29;-0.20;99.90
5118;DHT22;2578;51.622;7.046;2023-03-11T05:09:55;-0.20;99.90
5118;DHT22;2578;51.622;7.046;2023-03-11T05:12:21;-0.20;99.90
5118;DHT22;2578;51.622;7.046;2023-03-11T05:14:46;-0.20;99.90
5118;DHT22;2578;51.622;7.046;2023-03-11T05:17:12;-0.20;99.90
5118;DHT22;2578;51.622;7.046;2023-03-11T05:19:39;-0.30;99.90
5118;DHT22;2578;51.622;7.046;2023-03-11T05:22:06;-0.30;99.90
5118;DHT22;2578;51.622;7.046;2023-03-11T05:24:32;-0.30;99.90
5118;DHT22;2578;51.622;7.046;2023-03-11T05:26:58;-0.20;99.90
5118;DHT22;2578;51.622;7.046;2023-03-11T05:29:25;-0.20;99.90
5118;DHT22;2578;51.622;7.046;2023-03-11T05:31:51;-0.20;99.90
5118;DHT22;2578;51.622;7.046;2023-03-11T05:34:18;-0.30;99.90
5118;DHT22;2578;51.622;7.046;2023-03-11T05:36:44;-0.20;99.90
5118;DHT22;2578;51.622;7.046;2023-03-11T05:39:09;-0.20;99.90
5118;DHT22;2578;51.622;7.046;2023-03-11T05:41:35;-0.20;99.90
5118;DHT22;2578;51.622;7.046;2023-03-11T05:44:01;-0.30;99.90
5118;DHT22;2578;51.622;7.046;2023-03-11T05:46:27;-0.30;99.90
5118;DHT22;2578;51.622;7.046;2023-03-11T05:48:52;-0.30;99.90
5118;DHT22;2578;51.622;7.046;2023-03-11T05:51:18;-0.30;99.90
5118;DHT22;2578;51.622;7.046;2023-03-11T05:53:45;-0.30;99.90
5118;DHT22;2578;51.622;7.046;2023-03-11T05:56:13;-0.30;99.90
5118;DHT22;2578;51.622;7.046;2023-03-11T05:58:39;-0.30;99.90
5118;DHT22;2578;51.622;7.046;2023-03-11T06:01:14;-0.30;99.90
5118;DHT22;2578;51.622;7.046;2023-03-11T06:03:40;-0.30;99.90
5118;DHT22;2578;51.622;7.046;2023-03-11T06:06:07;-0.40;99.90
5118;DHT22;2578;51.622;7.046;2023-03-11T06:08:34;-0.40;99.90
5118;DHT22;2578;51.622;7.046;2023-03-11T06:11:08;-0.40;99.90
5118;DHT22;2578;51.622;7.046;2023-03-11T06:13:34;-0.40;99.90
5118;DHT22;2578;51.622;7.046;2023-03-11T06:16:00;-0.50;99.90
5118;DHT22;2578;51.622;7.046;2023-03-11T06:18:26;-0.50;99.90
5118;DHT22;2578;51.622;7.046;2023-03-11T06:20:57;-0.50;99.90
5118;DHT22;2578;51.622;7.046;2023-03-11T06:23:23;-0.50;99.90
5118;DHT22;2578;51.622;7.046;2023-03-11T06:26:04;-0.80;99.90
5118;DHT22;2578;51.622;7.046;2023-03-11T06:28:30;-0.90;99.90
5118;DHT22;2578;51.622;7.046;2023-03-11T06:31:06;-0.40;99.90
5118;DHT22;2578;51.622;7.046;2023-03-11T06:33:32;-0.30;99.90
5118;DHT22;2578;51.622;7.046;2023-03-11T06:35:58;-0.20;99.90
5118;DHT22;2578;51.622;7.046;2023-03-11T06:38:24;-0.10;99.90
5118;DHT22;2578;51.622;7.046;2023-03-11T06:40:50;0.00;99.90
5118;DHT22;2578;51.622;7.046;2023-03-11T06:43:16;0.10;99.90
5118;DHT22;2578;51.622;7.046;2023-03-11T06:45:41;0.10;99.90
5118;DHT22;2578;51.622;7.046;2023-03-11T06:48:07;0.30;99.90
5118;DHT22;2578;51.622;7.046;2023-03-11T06:50:32;0.40;99.90
5118;DHT22;2578;51.622;7.046;2023-03-11T06:52:58;0.80;99.90
5118;DHT22;2578;51.622;7.046;2023-03-11T06:55:24;0.50;99.90
5118;DHT22;2578;51.622;7.046;2023-03-11T06:57:50;0.70;99.90
5118;DHT22;2578;51.622;7.046;2023-03-11T07:00:15;0.70;99.90
5118;DHT22;2578;51.622;7.046;2023-03-11T07:02:41;2.00;99.90
5118;DHT22;2578;51.622;7.046;2023-03-11T07:05:07;0.80;99.90
5118;DHT22;2578;51.622;7.046;2023-03-11T07:07:33;0.90;99.90
5118;DHT22;2578;51.622;7.046;2023-03-11T07:09:59;1.00;99.90
5118;DHT22;2578;51.622;7.046;2023-03-11T07:12:25;1.00;99.90
5118;DHT22;2578;51.622;7.046;2023-03-11T07:14:55;1.00;99.90
5118;DHT22;2578;51.622;7.046;2023-03-11T07:17:21;1.10;99.90
5118;DHT22;2578;51.622;7.046;2023-03-11T07:19:46;1.30;99.90
5118;DHT22;2578;51.622;7.046;2023-03-11T07:22:12;1.40;99.90
5118;DHT22;2578;51.622;7.046;2023-03-11T07:24:39;1.50;99.90
5118;DHT22;2578;51.622;7.046;2023-03-11T07:27:04;1.40;99.90
5118;DHT22;2578;51.622;7.046;2023-03-11T07:29:30;1.30;99.90
5118;DHT22;2578;51.622;7.046;2023-03-11T07:31:56;3.00;99.90
5118;DHT22;2578;51.622;7.046;2023-03-11T07:34:21;1.50;99.90
5118;DHT22;2578;51.622;7.046;2023-03-11T07:36:47;1.60;99.90
5118;DHT22;2578;51.622;7.046;2023-03-11T07:39:17;1.70;99.90
5118;DHT22;2578;51.622;7.046;2023-03-11T07:44:11;3.40;99.90
5118;DHT22;2578;51.622;7.046;2023-03-11T07:46:37;2.10;99.90
5118;DHT22;2578;51.622;7.046;2023-03-11T07:49:03;2.30;99.90
5118;DHT22;2578;51.622;7.046;2023-03-11T07:51:30;2.30;99.90
5118;DHT22;2578;51.622;7.046;2023-03-11T07:53:58;2.40;99.90
5118;DHT22;2578;51.622;7.046;2023-03-11T07:56:26;2.50;99.90
5118;DHT22;2578;51.622;7.046;2023-03-11T07:58:52;2.30;99.90
5118;DHT22;2578;51.622;7.046;2023-03-11T08:01:21;2.30;99.90
5118;DHT22;2578;51.622;7.046;2023-03-11T08:03:50;2.30;99.90
5118;DHT22;2578;51.622;7.046;2023-03-11T08:06:20;2.40;99.90
5118;DHT22;2578;51.622;7.046;2023-03-11T08:08:47;2.80;99.90
5118;DHT22;2578;51.622;7.046;2023-03-11T08:11:13;2.80;99.90
5118;DHT22;2578;51.622;7.046;2023-03-11T08:13:40;2.90;99.90
5118;DHT22;2578;51.622;7.046;2023-03-11T08:16:07;5.00;99.90
5118;DHT22;2578;51.622;7.046;2023-03-11T08:18:33;3.10;99.90
5118;DHT22;2578;51.622;7.046;2023-03-11T08:21:04;3.10;99.90
5118;DHT22;2578;51.622;7.046;2023-03-11T08:23:30;3.20;99.90
5118;DHT22;2578;51.622;7.046;2023-03-11T08:25:56;3.30;99.90
5118;DHT22;2578;51.622;7.046;2023-03-11T08:28:21;3.90;32.80
5118;DHT22;2578;51.622;7.046;2023-03-11T08:30:47;3.70;99.90
5118;DHT22;2578;51.622;7.046;2023-03-11T08:33:13;4.00;99.90
5118;DHT22;2578;51.622;7.046;2023-03-11T08:35:39;4.10;99.90
5118;DHT22;2578;51.622;7.046;2023-03-11T08:38:04;4.20;99.90
5118;DHT22;2578;51.622;7.046;2023-03-11T08:40:30;4.20;99.90
5118;DHT22;2578;51.622;7.046;2023-03-11T08:42:56;4.60;99.90
5118;DHT22;2578;51.622;7.046;2023-03-11T08:45:21;4.80;99.90
5118;DHT22;2578;51.622;7.046;2023-03-11T08:47:47;4.40;99.90
5118;DHT22;2578;51.622;7.046;2023-03-11T08:50:15;4.50;99.90
5118;DHT22;2578;51.622;7.046;2023-03-11T08:52:41;4.60;39.00
5118;DHT22;2578;51.622;7.046;2023-03-11T08:55:13;5.20;99.90
5118;DHT22;2578;51.622;7.046;2023-03-11T08:57:41;5.10;92.40
5118;DHT22;2578;51.622;7.046;2023-03-11T09:00:07;5.00;99.90
5118;DHT22;2578;51.622;7.046;2023-03-11T09:02:33;4.80;99.90
5118;DHT22;2578;51.622;7.046;2023-03-11T09:04:59;5.10;99.90
5118;DHT22;2578;51.622;7.046;2023-03-11T09:07:25;5.30;1.00
5118;DHT22;2578;51.622;7.046;2023-03-11T09:09:50;5.20;1.00
5118;DHT22;2578;51.622;7.046;2023-03-11T09:12:16;4.80;1.00
5118;DHT22;2578;51.622;7.046;2023-03-11T09:14:43;4.90;1.00
5118;DHT22;2578;51.622;7.046;2023-03-11T09:17:09;5.30;1.00
5118;DHT22;2578;51.622;7.046;2023-03-11T09:19:37;5.30;1.00
5118;DHT22;2578;51.622;7.046;2023-03-11T09:22:03;5.50;1.00
5118;DHT22;2578;51.622;7.046;2023-03-11T09:24:32;5.60;1.00
5118;DHT22;2578;51.622;7.046;2023-03-11T09:26:59;5.60;1.00
5118;DHT22;2578;51.622;7.046;2023-03-11T09:29:25;6.00;1.00
5118;DHT22;2578;51.622;7.046;2023-03-11T09:31:51;5.70;1.00
5118;DHT22;2578;51.622;7.046;2023-03-11T09:34:16;5.80;1.00
5118;DHT22;2578;51.622;7.046;2023-03-11T09:36:43;5.90;1.00
5118;DHT22;2578;51.622;7.046;2023-03-11T09:39:08;5.90;1.00
5118;DHT22;2578;51.622;7.046;2023-03-11T09:42:00;6.50;1.00
5118;DHT22;2578;51.622;7.046;2023-03-11T09:44:37;5.80;1.00
5118;DHT22;2578;51.622;7.046;2023-03-11T09:47:37;5.80;1.00
5118;DHT22;2578;51.622;7.046;2023-03-11T09:51:11;5.50;1.00
5118;DHT22;2578;51.622;7.046;2023-03-11T09:53:38;4.30;1.00
5118;DHT22;2578;51.622;7.046;2023-03-11T09:56:09;4.50;1.00
5118;DHT22;2578;51.622;7.046;2023-03-11T09:58:43;5.20;1.00
5118;DHT22;2578;51.622;7.046;2023-03-11T10:03:42;5.60;1.00
5118;DHT22;2578;51.622;7.046;2023-03-11T10:06:22;6.30;1.00
5118;DHT22;2578;51.622;7.046;2023-03-11T10:20:33;7.90;1.00
5118;DHT22;2578;51.622;7.046;2023-03-11T10:25:31;7.60;1.00
5118;DHT22;2578;51.622;7.046;2023-03-11T10:28:09;7.00;1.00
5118;DHT22;2578;51.622;7.046;2023-03-11T10:30:39;7.20;1.00
5118;DHT22;2578;51.622;7.046;2023-03-11T10:35:57;8.90;1.00
5118;DHT22;2578;51.622;7.046;2023-03-11T10:38:34;8.20;1.00
5118;DHT22;2578;51.622;7.046;2023-03-11T10:41:12;7.80;1.00
5118;DHT22;2578;51.622;7.046;2023-03-11T10:43:56;8.20;1.00
5118;DHT22;2578;51.622;7.046;2023-03-11T10:46:26;8.70;1.00
5118;DHT22;2578;51.622;7.046;2023-03-11T10:48:53;9.40;1.00
5118;DHT22;2578;51.622;7.046;2023-03-11T10:51:26;8.90;1.00
5118;DHT22;2578;51.622;7.046;2023-03-11T10:53:59;7.10;1.00
5118;DHT22;2578;51.622;7.046;2023-03-11T10:56:38;6.80;1.00
5118;DHT22;2578;51.622;7.046;2023-03-11T11:01:54;7.30;1.00
5118;DHT22;2578;51.622;7.046;2023-03-11T11:04:39;7.80;1.00
5118;DHT22;2578;51.622;7.046;2023-03-11T11:07:29;7.50;1.00
5118;DHT22;2578;51.622;7.046;2023-03-11T11:10:21;7.60;1.00
5118;DHT22;2578;51.622;7.046;2023-03-11T11:15:31;8.60;1.00
5118;DHT22;2578;51.622;7.046;2023-03-11T11:18:06;8.80;1.00
5118;DHT22;2578;51.622;7.046;2023-03-11T11:20:52;8.40;1.00
5118;DHT22;2578;51.622;7.046;2023-03-11T11:23:39;7.80;1.00
5118;DHT22;2578;51.622;7.046;2023-03-11T11:26:23;8.20;1.00
5118;DHT22;2578;51.622;7.046;2023-03-11T11:29:17;9.00;1.00
5118;DHT22;2578;51.622;7.046;2023-03-11T11:31:44;9.40;1.00
5118;DHT22;2578;51.622;7.046;2023-03-11T11:34:29;9.90;1.00
5118;DHT22;2578;51.622;7.046;2023-03-11T11:36:57;10.60;1.00
5118;DHT22;2578;51.622;7.046;2023-03-11T11:39:26;10.90;1.00
5118;DHT22;2578;51.622;7.046;2023-03-11T11:41:54;8.90;1.00
5118;DHT22;2578;51.622;7.046;2023-03-11T11:44:23;8.80;1.00
5118;DHT22;2578;51.622;7.046;2023-03-11T11:46:57;7.80;1.00
5118;DHT22;2578;51.622;7.046;2023-03-11T11:49:28;7.60;1.00
5118;DHT22;2578;51.622;7.046;2023-03-11T11:54:50;7.80;1.00
5118;DHT22;2578;51.622;7.046;2023-03-11T11:57:19;8.10;1.00
5118;DHT22;2578;51.622;7.046;2023-03-11T11:59:46;8.90;1.00
5118;DHT22;2578;51.622;7.046;2023-03-11T12:02:42;10.80;1.00
5118;DHT22;2578;51.622;7.046;2023-03-11T12:07:59;10.50;1.00
5118;DHT22;2578;51.622;7.046;2023-03-11T12:13:26;9.00;1.00
5118;DHT22;2578;51.622;7.046;2023-03-11T12:24:47;7.30;1.00
5118;DHT22;2578;51.622;7.046;2023-03-11T12:27:22;7.30;1.00
5118;DHT22;2578;51.622;7.046;2023-03-11T12:29:54;7.50;1.00
5118;DHT22;2578;51.622;7.046;2023-03-11T12:32:35;8.00;1.00
5118;DHT22;2578;51.622;7.046;2023-03-11T12:35:27;8.00;1.00
5118;DHT22;2578;51.622;7.046;2023-03-11T12:38:14;7.90;1.00
5118;DHT22;2578;51.622;7.046;2023-03-11T12:43:57;7.30;1.00
5118;DHT22;2578;51.622;7.046;2023-03-11T12:49:34;9.70;1.00
5118;DHT22;2578;51.622;7.046;2023-03-11T12:52:22;9.70;1.00
5118;DHT22;2578;51.622;7.046;2023-03-11T12:57:52;9.70;1.00
5118;DHT22;2578;51.622;7.046;2023-03-11T13:00:37;9.50;1.00
5118;DHT22;2578;51.622;7.046;2023-03-11T13:08:54;10.80;1.00
5118;DHT22;2578;51.622;7.046;2023-03-11T13:14:25;11.10;1.00
5118;DHT22;2578;51.622;7.046;2023-03-11T13:16:51;11.80;1.00
5118;DHT22;2578;51.622;7.046;2023-03-11T13:21:58;13.00;1.00
5118;DHT22;2578;51.622;7.046;2023-03-11T13:39:59;11.70;1.00
5118;DHT22;2578;51.622;7.046;2023-03-11T13:42:34;12.20;1.00
5118;DHT22;2578;51.622;7.046;2023-03-11T13:45:01;12.20;1.00
5118;DHT22;2578;51.622;7.046;2023-03-11T13:47:30;12.50;1.00
5118;DHT22;2578;51.622;7.046;2023-03-11T13:50:55;11.30;1.00
5118;DHT22;2578;51.622;7.046;2023-03-11T13:53:07;10.30;1.00
5118;DHT22;2578;51.622;7.046;2023-03-11T13:55:38;10.40;1.00
5118;DHT22;2578;51.622;7.046;2023-03-11T14:01:01;10.20;1.00
5118;DHT22;2578;51.622;7.046;2023-03-11T14:03:31;10.20;1.00
5118;DHT22;2578;51.622;7.046;2023-03-11T14:06:01;9.70;1.00
5118;DHT22;2578;51.622;7.046;2023-03-11T14:08:28;7.90;1.00
5118;DHT22;2578;51.622;7.046;2023-03-11T14:10:57;7.60;1.00
5118;DHT22;2578;51.622;7.046;2023-03-11T14:13:25;7.70;1.00
5118;DHT22;2578;51.622;7.046;2023-03-11T14:18:33;7.20;1.00
5118;DHT22;2578;51.622;7.046;2023-03-11T14:20:59;7.30;1.00
5118;DHT22;2578;51.622;7.046;2023-03-11T14:23:29;6.70;1.00
5118;DHT22;2578;51.622;7.046;2023-03-11T14:26:07;6.90;1.00
5118;DHT22;2578;51.622;7.046;2023-03-11T14:28:36;7.20;1.00
5118;DHT22;2578;51.622;7.046;2023-03-11T14:31:04;7.70;1.00
5118;DHT22;2578;51.622;7.046;2023-03-11T14:33:30;8.10;1.00
5118;DHT22;2578;51.622;7.046;2023-03-11T14:35:58;8.00;1.00
5118;DHT22;2578;51.622;7.046;2023-03-11T14:38:27;7.90;1.00
5118;DHT22;2578;51.622;7.046;2023-03-11T14:40:56;7.60;1.00
5118;DHT22;2578;51.622;7.046;2023-03-11T14:43:23;7.50;1.00
5118;DHT22;2578;51.622;7.046;2023-03-11T14:45:49;7.50;1.00
5118;DHT22;2578;51.622;7.046;2023-03-11T14:48:21;7.20;1.00
5118;DHT22;2578;51.622;7.046;2023-03-11T14:50:49;6.90;1.00
5118;DHT22;2578;51.622;7.046;2023-03-11T14:53:40;6.20;1.00
5118;DHT22;2578;51.622;7.046;2023-03-11T14:56:19;6.20;1.00
5118;DHT22;2578;51.622;7.046;2023-03-11T14:58:59;6.30;1.00
5118;DHT22;2578;51.622;7.046;2023-03-11T15:01:30;6.60;1.00
5118;DHT22;2578;51.622;7.046;2023-03-11T15:06:34;6.40;1.00
5118;DHT22;2578;51.622;7.046;2023-03-11T15:09:15;6.40;1.00
5118;DHT22;2578;51.622;7.046;2023-03-11T15:11:56;6.80;1.00
5118;DHT22;2578;51.622;7.046;2023-03-11T15:14:32;6.80;1.00
5118;DHT22;2578;51.622;7.046;2023-03-11T15:17:18;6.90;1.00
5118;DHT22;2578;51.622;7.046;2023-03-11T15:19:46;6.40;1.00
5118;DHT22;2578;51.622;7.046;2023-03-11T15:22:28;6.30;1.00
5118;DHT22;2578;51.622;7.046;2023-03-11T15:25:00;6.30;1.00
5118;DHT22;2578;51.622;7.046;2023-03-11T15:27:34;6.20;1.00
5118;DHT22;2578;51.622;7.046;2023-03-11T15:30:14;6.10;1.00
5118;DHT22;2578;51.622;7.046;2023-03-11T15:32:42;6.00;1.00
5118;DHT22;2578;51.622;7.046;2023-03-11T15:37:38;5.80;1.00
5118;DHT22;2578;51.622;7.046;2023-03-11T15:42:46;5.60;1.00
5118;DHT22;2578;51.622;7.046;2023-03-11T15:45:16;6.80;1.00
5118;DHT22;2578;51.622;7.046;2023-03-11T15:47:43;5.50;1.00
5118;DHT22;2578;51.622;7.046;2023-03-11T15:52:39;5.40;1.00
5118;DHT22;2578;51.622;7.046;2023-03-11T15:55:05;5.50;1.00
5118;DHT22;2578;51.622;7.046;2023-03-11T15:57:31;5.60;1.00
5118;DHT22;2578;51.622;7.046;2023-03-11T15:59:59;5.80;1.00
5118;DHT22;2578;51.622;7.046;2023-03-11T16:02:29;6.10;1.00
5118;DHT22;2578;51.622;7.046;2023-03-11T16:04:56;6.10;1.00
5118;DHT22;2578;51.622;7.046;2023-03-11T16:07:22;6.20;1.00
5118;DHT22;2578;51.622;7.046;2023-03-11T16:09:47;5.90;1.00
5118;DHT22;2578;51.622;7.046;2023-03-11T16:12:14;5.60;1.00
5118;DHT22;2578;51.622;7.046;2023-03-11T16:14:40;5.60;1.00
5118;DHT22;2578;51.622;7.046;2023-03-11T16:17:06;5.50;1.00
5118;DHT22;2578;51.622;7.046;2023-03-11T16:19:31;5.50;1.00
5118;DHT22;2578;51.622;7.046;2023-03-11T16:21:57;5.40;1.00
5118;DHT22;2578;51.622;7.046;2023-03-11T16:24:24;5.40;1.00
5118;DHT22;2578;51.622;7.046;2023-03-11T16:26:51;5.20;1.00
5118;DHT22;2578;51.622;7.046;2023-03-11T16:29:18;5.10;1.00
5118;DHT22;2578;51.622;7.046;2023-03-11T16:31:44;5.20;1.00
5118;DHT22;2578;51.622;7.046;2023-03-11T16:34:10;5.00;1.00
5118;DHT22;2578;51.622;7.046;2023-03-11T16:36:35;5.00;1.00
5118;DHT22;2578;51.622;7.046;2023-03-11T16:39:01;5.10;1.00
5118;DHT22;2578;51.622;7.046;2023-03-11T16:41:27;7.90;1.00
5118;DHT22;2578;51.622;7.046;2023-03-11T16:43:53;5.00;1.00
5118;DHT22;2578;51.622;7.046;2023-03-11T16:46:18;4.90;1.00
5118;DHT22;2578;51.622;7.046;2023-03-11T16:48:44;4.90;1.00
5118;DHT22;2578;51.622;7.046;2023-03-11T16:51:10;6.50;1.00
5118;DHT22;2578;51.622;7.046;2023-03-11T16:53:35;4.80;1.00
5118;DHT22;2578;51.622;7.046;2023-03-11T16:56:01;4.80;1.00
5118;DHT22;2578;51.622;7.046;2023-03-11T16:58:27;4.70;1.00
5118;DHT22;2578;51.622;7.046;2023-03-11T17:00:53;4.70;1.00
5118;DHT22;2578;51.622;7.046;2023-03-11T17:03:19;4.70;1.00
5118;DHT22;2578;51.622;7.046;2023-03-11T17:05:45;4.70;1.00
5118;DHT22;2578;51.622;7.046;2023-03-11T17:08:11;4.70;1.00
5118;DHT22;2578;51.622;7.046;2023-03-11T17:10:38;5.50;1.00
5118;DHT22;2578;51.622;7.046;2023-03-11T17:13:05;4.40;1.00
5118;DHT22;2578;51.622;7.046;2023-03-11T17:15:31;4.40;1.00
5118;DHT22;2578;51.622;7.046;2023-03-11T17:17:59;4.10;1.00
5118;DHT22;2578;51.622;7.046;2023-03-11T17:20:24;3.80;1.00
5118;DHT22;2578;51.622;7.046;2023-03-11T17:22:50;3.60;1.00
5118;DHT22;2578;51.622;7.046;2023-03-11T17:25:16;3.50;1.00
5118;DHT22;2578;51.622;7.046;2023-03-11T17:27:41;3.40;1.00
5118;DHT22;2578;51.622;7.046;2023-03-11T17:30:08;3.20;1.00
5118;DHT22;2578;51.622;7.046;2023-03-11T17:32:34;3.20;1.00
5118;DHT22;2578;51.622;7.046;2023-03-11T17:34:59;3.10;1.00
5118;DHT22;2578;51.622;7.046;2023-03-11T17:37:25;3.10;1.00
5118;DHT22;2578;51.622;7.046;2023-03-11T17:39:51;3.00;1.00
5118;DHT22;2578;51.622;7.046;2023-03-11T17:42:17;2.80;1.00
5118;DHT22;2578;51.622;7.046;2023-03-11T17:44:42;2.80;1.00
5118;DHT22;2578;51.622;7.046;2023-03-11T17:47:08;2.70;1.00
5118;DHT22;2578;51.622;7.046;2023-03-11T17:49:34;3.10;1.00
5118;DHT22;2578;51.622;7.046;2023-03-11T17:51:59;2.40;1.00
5118;DHT22;2578;51.622;7.046;2023-03-11T17:54:25;3.20;1.00
5118;DHT22;2578;51.622;7.046;2023-03-11T17:56:50;2.20;1.00
5118;DHT22;2578;51.622;7.046;2023-03-11T17:59:18;2.00;1.00
5118;DHT22;2578;51.622;7.046;2023-03-11T18:01:43;1.90;1.00
5118;DHT22;2578;51.622;7.046;2023-03-11T18:04:09;2.00;1.00
5118;DHT22;2578;51.622;7.046;2023-03-11T18:06:34;3.00;1.00
5118;DHT22;2578;51.622;7.046;2023-03-11T18:09:00;1.80;1.00
5118;DHT22;2578;51.622;7.046;2023-03-11T18:11:27;1.70;1.00
5118;DHT22;2578;51.622;7.046;2023-03-11T18:13:53;1.60;1.00